Time;durP1;ratioP1;P1;durP2;ratioP2;P2;SDS_P1;SDS_P2;PMS_P1;PMS_P2;Temp;Humidity;BMP_temperature;BMP_pressure;BME280_temperature;BME280_humidity;BME280_pressure;Samples;Min_cycle;Max_cycle;Signal;HPM_P1;HPM_P2
2023/08/19 00:00:06;;;;;;;7.60;4.67;;;24.00;99.90;;;;;;5067968;28;20468;-77
2023/08/19 00:02:35;;;;;;;5.77;4.80;;;24.00;99.90;;;;;;5063610;28;20445;-78
2023/08/19 00:05:05;;;;;;;5.03;4.53;;;23.90;99.90;;;;;;5064045;28;20479;-78
2023/08/19 00:07:35;;;;;;;5.33;4.77;;;23.90;99.90;;;;;;5064049;28;20555;-79
2023/08/19 00:10:06;;;;;;;9.63;4.33;;;23.80;99.90;;;;;;5065729;28;20548;-78
2023/08/19 00:12:37;;;;;;;5.30;4.70;;;23.80;99.90;;;;;;5063276;28;20492;-79
2023/08/19 00:15:11;;;;;;;6.93;4.70;;;23.70;99.90;;;;;;5057952;28;20516;-80
2023/08/19 00:17:39;;;;;;;5.80;4.53;;;23.70;99.90;;;;;;5057950;28;20475;-78
2023/08/19 00:20:11;;;;;;;5.23;4.27;;;23.60;99.90;;;;;;5055681;28;20975;-80
2023/08/19 00:22:41;;;;;;;8.33;5.00;;;23.60;99.90;;;;;;5055983;28;20451;-77
2023/08/19 00:25:13;;;;;;;9.57;4.27;;;23.50;99.90;;;;;;5056526;28;20459;-78
2023/08/19 00:30:30;;;;;;;5.10;4.60;;;23.50;99.90;;;;;;5053629;28;20434;-77
2023/08/19 00:33:04;;;;;;;4.60;4.20;;;23.40;99.90;;;;;;5056870;28;20430;-76
2023/08/19 00:35:33;;;;;;;7.60;4.63;;;23.40;99.90;;;;;;5057745;28;20488;-79
2023/08/19 00:38:11;;;;;;;5.30;4.80;;;23.40;99.90;;;;;;5062113;28;20458;-80
2023/08/19 00:40:46;;;;;;;7.80;4.50;;;23.30;99.90;;;;;;5062210;28;20476;-78
2023/08/19 00:43:25;;;;;;;5.40;4.80;;;23.20;99.90;;;;;;5064358;28;20514;-77
2023/08/19 00:45:58;;;;;;;6.33;4.40;;;23.10;99.90;;;;;;5063290;28;20989;-78
2023/08/19 00:48:33;;;;;;;5.10;4.57;;;23.00;99.90;;;;;;5067358;28;20494;-78
2023/08/19 00:51:18;;;;;;;4.53;4.10;;;23.00;99.90;;;;;;5067739;28;20488;-77
2023/08/19 00:53:51;;;;;;;4.93;4.33;;;22.90;99.90;;;;;;5069474;28;20484;-78
2023/08/19 00:56:20;;;;;;;5.43;4.50;;;23.00;99.90;;;;;;5069072;28;20474;-77
2023/08/19 00:58:53;;;;;;;5.90;5.27;;;23.00;99.90;;;;;;5069480;28;20461;-78
2023/08/19 01:01:23;;;;;;;6.43;5.47;;;22.90;99.90;;;;;;5069014;28;20475;-78
2023/08/19 01:09:54;;;;;;;6.00;5.20;;;22.90;99.90;;;;;;5061786;28;20468;-78
2023/08/19 01:15:26;;;;;;;6.20;4.90;;;22.80;99.90;;;;;;5064601;28;20471;-77
2023/08/19 01:17:56;;;;;;;5.53;5.03;;;22.80;99.90;;;;;;5066199;28;20456;-78
2023/08/19 01:20:46;;;;;;;5.83;5.33;;;22.80;99.90;;;;;;5062928;28;20484;-77
2023/08/19 01:23:21;;;;;;;6.10;4.87;;;22.80;99.90;;;;;;5057765;28;20450;-78
2023/08/19 01:26:07;;;;;;;6.50;4.63;;;22.70;99.90;;;;;;5056534;28;20473;-78
2023/08/19 01:31:42;;;;;;;5.53;5.03;;;22.70;99.90;;;;;;5058953;28;20507;-77
2023/08/19 01:34:25;;;;;;;6.53;4.10;;;22.60;99.90;;;;;;5059590;28;20501;-80
2023/08/19 01:37:07;;;;;;;6.70;5.50;;;22.60;99.90;;;;;;5054654;28;20524;-79
2023/08/19 01:39:39;;;;;;;5.53;4.40;;;22.60;99.90;;;;;;5054938;28;20446;-77
2023/08/19 01:42:39;;;;;;;5.37;4.90;;;22.60;99.90;;;;;;5054432;28;20484;-77
2023/08/19 01:48:05;;;;;;;4.57;4.17;;;22.50;99.90;;;;;;5044600;28;20425;-77
2023/08/19 01:50:34;;;;;;;5.83;4.07;;;22.50;99.90;;;;;;5055513;28;20654;-77
2023/08/19 01:53:10;;;;;;;5.50;4.93;;;22.50;99.90;;;;;;5053786;28;20448;-79
2023/08/19 01:55:42;;;;;;;4.20;3.80;;;22.50;99.90;;;;;;5054148;28;20472;-77
2023/08/19 01:58:16;;;;;;;5.70;4.80;;;22.40;99.90;;;;;;5054596;28;20467;-76
2023/08/19 02:00:51;;;;;;;5.30;4.57;;;22.40;99.90;;;;;;5054063;28;20867;-79
2023/08/19 02:03:38;;;;;;;5.77;4.83;;;22.40;99.90;;;;;;5054194;28;20738;-79
2023/08/19 02:06:14;;;;;;;6.50;4.80;;;22.30;99.90;;;;;;5054167;28;20631;-79
2023/08/19 02:08:52;;;;;;;4.77;4.37;;;22.30;99.90;;;;;;5058568;28;20453;-78
2023/08/19 02:11:23;;;;;;;6.43;4.60;;;22.20;99.90;;;;;;5054543;28;20441;-76
2023/08/19 02:13:55;;;;;;;5.40;4.70;;;22.20;99.90;;;;;;5055567;28;20453;-77
2023/08/19 02:16:28;;;;;;;10.50;5.23;;;22.20;99.90;;;;;;5055588;28;20484;-78
2023/08/19 02:19:04;;;;;;;6.00;5.13;;;22.10;99.90;;;;;;5055838;28;20480;-76
2023/08/19 02:21:32;;;;;;;4.97;4.57;;;22.10;99.90;;;;;;5054381;28;21173;-77
2023/08/19 02:24:00;;;;;;;5.17;4.67;;;22.10;99.90;;;;;;5054588;28;20453;-79
2023/08/19 02:26:37;;;;;;;5.27;4.87;;;22.10;99.90;;;;;;5053548;28;20462;-77
2023/08/19 02:29:10;;;;;;;4.80;4.30;;;22.10;99.90;;;;;;5053013;28;20492;-76
2023/08/19 02:31:39;;;;;;;5.90;4.47;;;22.00;99.90;;;;;;5052861;28;20477;-75
2023/08/19 02:34:13;;;;;;;7.27;4.50;;;22.00;99.90;;;;;;5053366;28;20507;-78
2023/08/19 02:36:45;;;;;;;5.37;4.87;;;22.00;99.90;;;;;;5054301;28;20503;-78
2023/08/19 02:39:14;;;;;;;11.43;4.67;;;22.00;99.90;;;;;;5055172;28;20454;-77
2023/08/19 02:41:46;;;;;;;5.60;5.10;;;22.00;99.90;;;;;;5053698;28;20503;-79
2023/08/19 02:44:15;;;;;;;4.37;4.07;;;21.90;99.90;;;;;;5055946;28;20957;-77
2023/08/19 02:46:51;;;;;;;4.70;4.30;;;21.90;99.90;;;;;;5054736;28;20502;-78
2023/08/19 02:49:28;;;;;;;9.60;5.13;;;21.80;99.90;;;;;;5056828;28;20456;-77
2023/08/19 02:52:01;;;;;;;6.10;4.50;;;21.80;99.90;;;;;;5056655;28;20433;-80
2023/08/19 02:54:33;;;;;;;7.13;5.70;;;21.80;99.90;;;;;;5055646;28;20961;-79
2023/08/19 02:57:04;;;;;;;6.83;5.60;;;21.70;99.90;;;;;;5055400;28;20512;-78
2023/08/19 02:59:41;;;;;;;8.43;5.10;;;21.70;99.90;;;;;;5055390;28;20450;-78
2023/08/19 03:02:12;;;;;;;7.57;4.93;;;21.70;99.90;;;;;;5054554;28;20459;-78
2023/08/19 03:04:43;;;;;;;5.90;5.50;;;21.60;99.90;;;;;;5056959;28;20947;-79
2023/08/19 03:07:11;;;;;;;7.47;4.47;;;21.70;99.90;;;;;;5058550;28;20481;-78
2023/08/19 03:09:39;;;;;;;4.57;4.27;;;21.50;99.90;;;;;;5057918;28;20690;-78
2023/08/19 03:12:11;;;;;;;5.10;4.40;;;21.50;99.90;;;;;;5057272;28;21010;-76
2023/08/19 03:14:45;;;;;;;6.40;5.37;;;21.50;99.90;;;;;;5057493;28;20438;-77
2023/08/19 03:17:14;;;;;;;8.30;4.87;;;21.50;99.90;;;;;;5056943;28;20481;-79
2023/08/19 03:19:44;;;;;;;6.57;5.20;;;21.40;99.90;;;;;;5057060;28;20455;-78
2023/08/19 03:22:14;;;;;;;7.03;5.10;;;21.40;99.90;;;;;;5058192;28;20441;-78
2023/08/19 03:24:45;;;;;;;5.30;4.80;;;21.40;99.90;;;;;;5058121;28;20534;-77
2023/08/19 03:27:14;;;;;;;11.00;4.77;;;21.40;99.90;;;;;;5057107;28;20552;-77
2023/08/19 03:29:54;;;;;;;5.97;5.17;;;21.40;99.90;;;;;;5058288;28;20468;-79
2023/08/19 03:32:24;;;;;;;4.70;4.23;;;21.30;99.90;;;;;;5058568;28;20426;-78
2023/08/19 03:34:53;;;;;;;4.80;4.40;;;21.30;99.90;;;;;;5058964;28;20426;-77
2023/08/19 03:37:26;;;;;;;5.07;4.67;;;21.30;99.90;;;;;;5060396;28;20481;-77
2023/08/19 03:40:14;;;;;;;6.20;5.20;;;21.30;99.90;;;;;;5058052;28;20477;-78
2023/08/19 03:43:09;;;;;;;7.97;5.33;;;21.30;99.90;;;;;;5057446;28;20468;-77
2023/08/19 03:45:42;;;;;;;5.37;4.93;;;21.30;99.90;;;;;;5046414;28;20556;-77
2023/08/19 03:48:14;;;;;;;7.43;5.10;;;21.20;99.90;;;;;;5056822;28;20888;-77
2023/08/19 03:50:45;;;;;;;4.90;4.50;;;21.20;99.90;;;;;;5058154;28;20454;-78
2023/08/19 03:53:16;;;;;;;6.07;4.50;;;21.20;99.90;;;;;;5056110;28;20480;-78
2023/08/19 03:55:45;;;;;;;5.43;4.83;;;21.20;99.90;;;;;;5056977;28;20461;-77
2023/08/19 03:58:13;;;;;;;5.57;4.70;;;21.10;99.90;;;;;;5058020;28;20484;-77
2023/08/19 04:00:47;;;;;;;5.83;4.63;;;21.10;99.90;;;;;;5057704;28;20460;-78
2023/08/19 04:03:16;;;;;;;6.20;5.53;;;21.00;99.90;;;;;;5057816;28;20445;-78
2023/08/19 04:05:44;;;;;;;6.00;5.50;;;21.00;99.90;;;;;;5058038;28;20470;-77
2023/08/19 04:08:12;;;;;;;5.17;4.63;;;21.00;99.90;;;;;;5058942;28;20755;-79
2023/08/19 04:10:44;;;;;;;5.10;4.60;;;21.00;99.90;;;;;;5058868;28;20695;-78
2023/08/19 04:13:16;;;;;;;5.87;5.20;;;21.00;99.90;;;;;;5059696;28;20480;-77
2023/08/19 04:15:52;;;;;;;5.10;4.70;;;21.00;99.90;;;;;;5057168;28;20531;-79
2023/08/19 04:18:20;;;;;;;5.67;5.00;;;21.00;99.90;;;;;;5057935;28;20461;-78
2023/08/19 04:20:48;;;;;;;7.03;5.40;;;20.90;99.90;;;;;;5057194;28;20459;-77
2023/08/19 04:23:19;;;;;;;6.93;5.03;;;20.90;99.90;;;;;;5056964;28;20584;-79
2023/08/19 04:25:50;;;;;;;7.73;5.10;;;20.90;99.90;;;;;;5059927;28;20511;-77
2023/08/19 04:28:18;;;;;;;5.73;5.10;;;20.90;99.90;;;;;;5059396;28;20500;-78
2023/08/19 04:30:54;;;;;;;11.13;5.47;;;20.90;99.90;;;;;;5062084;28;20429;-79
2023/08/19 04:33:27;;;;;;;6.30;5.17;;;20.90;99.90;;;;;;5059730;28;20460;-78
2023/08/19 04:36:08;;;;;;;6.30;5.47;;;20.80;99.90;;;;;;5064035;28;20442;-78
2023/08/19 04:38:38;;;;;;;7.20;5.20;;;20.80;99.90;;;;;;5066150;28;20484;-79
2023/08/19 04:41:06;;;;;;;9.93;6.00;;;20.70;99.90;;;;;;5046900;28;20442;-78
2023/08/19 04:43:35;;;;;;;7.03;5.80;;;20.70;99.90;;;;;;5050488;28;20434;-78
2023/08/19 04:46:05;;;;;;;13.60;5.93;;;20.60;99.90;;;;;;5067409;28;20470;-78
2023/08/19 04:48:37;;;;;;;9.90;5.10;;;20.60;99.90;;;;;;5065914;28;20468;-79
2023/08/19 04:51:08;;;;;;;11.57;5.30;;;20.60;99.90;;;;;;5066994;28;20459;-78
2023/08/19 04:53:45;;;;;;;9.07;6.80;;;20.60;99.90;;;;;;5059610;28;20437;-78
2023/08/19 04:56:17;;;;;;;8.50;6.70;;;20.60;99.90;;;;;;5061622;28;20473;-77
2023/08/19 05:01:33;;;;;;;9.10;6.33;;;20.60;99.90;;;;;;5069757;28;20430;-77
2023/08/19 05:04:02;;;;;;;11.83;6.63;;;20.60;99.90;;;;;;5071977;28;20457;-78
2023/08/19 05:06:36;;;;;;;14.73;7.63;;;20.60;99.90;;;;;;5064466;28;20561;-78
2023/08/19 05:09:28;;;;;;;14.53;8.00;;;20.50;99.90;;;;;;5060242;28;20647;-79
2023/08/19 05:11:56;;;;;;;12.47;7.00;;;20.60;99.90;;;;;;5060113;28;20837;-76
2023/08/19 05:14:25;;;;;;;13.87;7.10;;;20.60;99.90;;;;;;5058070;28;20930;-76
2023/08/19 05:16:56;;;;;;;18.80;8.27;;;20.70;99.90;;;;;;5055749;28;20513;-78
2023/08/19 05:19:26;;;;;;;8.90;6.17;;;20.80;99.90;;;;;;5056930;28;20430;-77
2023/08/19 05:21:57;;;;;;;13.93;6.77;;;20.80;99.90;;;;;;5054854;28;20549;-79
2023/08/19 05:24:28;;;;;;;14.83;6.77;;;20.80;99.90;;;;;;5053656;28;20792;-77
2023/08/19 05:27:02;;;;;;;11.93;5.77;;;20.90;99.90;;;;;;5053108;28;21103;-79
2023/08/19 05:29:30;;;;;;;12.33;6.50;;;20.90;99.90;;;;;;5054543;28;20445;-76
2023/08/19 05:32:08;;;;;;;13.77;6.70;;;21.00;99.90;;;;;;5054096;28;20829;-79
2023/08/19 05:34:54;;;;;;;11.37;6.03;;;21.10;99.90;;;;;;5053997;28;20457;-78
2023/08/19 05:37:28;;;;;;;8.40;6.67;;;21.10;99.90;;;;;;5053329;28;20504;-80
2023/08/19 05:40:03;;;;;;;11.70;7.80;;;21.20;99.90;;;;;;5054627;28;20422;-77
2023/08/19 05:42:34;;;;;;;16.53;7.53;;;21.20;99.90;;;;;;5053804;28;20870;-76
2023/08/19 05:45:01;;;;;;;12.60;6.37;;;21.30;99.90;;;;;;5054828;28;20800;-78
2023/08/19 05:47:32;;;;;;;7.50;6.63;;;21.40;99.90;;;;;;5054483;28;20477;-78
2023/08/19 05:53:10;;;;;;;8.17;6.10;;;21.60;99.90;;;;;;5059793;28;20437;-78
2023/08/19 05:55:42;;;;;;;9.90;6.67;;;21.70;99.90;;;;;;5060256;28;20545;-79
2023/08/19 06:05:17;;;;;;;6.53;5.93;;;22.00;99.90;;;;;;5051137;28;20444;-75
2023/08/19 06:11:06;;;;;;;8.03;7.23;;;22.30;99.90;;;;;;4943332;29;20431;-76
2023/08/19 06:13:40;;;;;;;8.73;5.70;;;22.40;99.90;;;;;;5002267;28;20982;-77
2023/08/19 06:16:25;;;;;;;11.30;6.43;;;22.50;99.90;;;;;;4999785;28;20506;-77
2023/08/19 06:19:53;;;;;;;7.80;5.60;;;22.60;99.90;;;;;;5005177;28;20503;-77
2023/08/19 06:22:36;;;;;;;5.67;5.17;;;22.70;99.90;;;;;;5033626;28;20477;-77
2023/08/19 06:25:08;;;;;;;6.57;5.97;;;22.90;99.90;;;;;;5057197;28;20952;-77
2023/08/19 06:27:44;;;;;;;8.60;6.23;;;23.00;99.90;;;;;;5054339;28;20583;-78
2023/08/19 06:30:23;;;;;;;6.33;5.73;;;23.10;99.90;;;;;;5055530;28;20500;-78
2023/08/19 06:33:00;;;;;;;5.90;5.30;;;23.20;99.90;;;;;;5054424;28;20484;-78
2023/08/19 06:35:40;;;;;;;6.07;4.97;;;23.30;99.90;;;;;;5054691;28;20434;-75
2023/08/19 06:41:42;;;;;;;5.53;5.03;;;23.40;99.90;;;;;;5065743;28;20434;-79
2023/08/19 06:44:13;;;;;;;7.07;4.63;;;23.50;99.90;;;;;;5058787;28;20445;-77
2023/08/19 06:46:45;;;;;;;5.33;4.70;;;23.60;99.90;;;;;;5060363;28;20469;-77
2023/08/19 06:49:15;;;;;;;5.73;5.20;;;23.70;99.90;;;;;;5060596;28;20445;-77
2023/08/19 06:54:31;;;;;;;5.13;4.60;;;23.90;99.90;;;;;;5048173;28;20445;-78
2023/08/19 06:57:24;;;;;;;7.30;5.30;;;24.00;99.90;;;;;;5062735;28;20465;-80
2023/08/19 07:03:15;;;;;;;10.03;7.17;;;24.20;99.90;;;;;;5057878;28;20456;-79
2023/08/19 07:05:54;;;;;;;7.03;6.30;;;24.30;99.90;;;;;;5061156;28;20473;-79
2023/08/19 07:08:31;;;;;;;5.20;4.80;;;24.40;99.90;;;;;;5062397;28;20452;-78
2023/08/19 07:13:52;;;;;;;5.67;5.20;;;24.60;99.90;;;;;;5058589;28;21154;-76
2023/08/19 07:16:22;;;;;;;6.17;5.57;;;24.70;99.90;;;;;;5060265;28;20466;-77
2023/08/19 07:19:01;;;;;;;6.30;4.60;;;24.80;99.90;;;;;;5063059;28;20476;-80
2023/08/19 07:21:30;;;;;;;5.80;4.77;;;24.80;99.90;;;;;;5063823;28;20791;-79
2023/08/19 07:24:04;;;;;;;5.37;4.87;;;24.90;99.90;;;;;;5062552;28;20449;-78
2023/08/19 07:26:38;;;;;;;5.33;4.50;;;25.00;99.90;;;;;;5066907;28;20494;-78
2023/08/19 07:29:17;;;;;;;5.57;5.07;;;25.10;99.90;;;;;;5071000;28;20491;-76
2023/08/19 07:31:54;;;;;;;6.47;5.67;;;25.20;99.90;;;;;;5064002;28;20461;-79
2023/08/19 07:34:25;;;;;;;5.43;4.93;;;25.20;99.90;;;;;;5063750;28;20453;-79
2023/08/19 07:36:56;;;;;;;4.77;4.37;;;25.40;99.90;;;;;;5064512;28;20453;-80
2023/08/19 07:39:29;;;;;;;6.10;5.40;;;25.40;99.90;;;;;;5062950;28;20484;-80
2023/08/19 07:41:58;;;;;;;7.80;5.37;;;25.90;99.90;;;;;;5064394;28;20414;-78
2023/08/19 07:44:40;;;;;;;7.17;5.70;;;25.70;99.90;;;;;;5063106;28;20450;-80
2023/08/19 07:47:25;;;;;;;6.07;5.17;;;25.80;99.90;;;;;;5066691;28;20519;-78
2023/08/19 07:50:04;;;;;;;7.97;6.27;;;26.00;99.90;;;;;;5063652;28;20484;-77
2023/08/19 07:52:39;;;;;;;6.73;5.30;;;26.10;99.90;;;;;;5063224;28;20594;-80
2023/08/19 07:55:10;;;;;;;6.70;6.00;;;26.10;99.90;;;;;;5063209;28;20418;-79
2023/08/19 07:58:04;;;;;;;6.00;5.40;;;26.30;99.90;;;;;;5062303;28;20553;-77
2023/08/19 08:00:42;;;;;;;10.70;5.23;;;26.40;99.90;;;;;;5064192;28;20479;-77
2023/08/19 08:03:13;;;;;;;7.20;5.20;;;26.70;99.90;;;;;;5070163;28;20463;-77
2023/08/19 08:05:43;;;;;;;7.67;4.93;;;26.80;99.90;;;;;;5071142;28;20492;-80
2023/08/19 08:08:15;;;;;;;6.50;5.63;;;27.00;99.90;;;;;;5068876;28;20453;-79
2023/08/19 08:10:52;;;;;;;7.27;4.90;;;27.10;99.90;;;;;;5070089;28;20828;-77
2023/08/19 08:13:20;;;;;;;5.53;4.60;;;27.30;99.90;;;;;;5065147;28;20453;-78
2023/08/19 08:15:54;;;;;;;4.97;4.50;;;27.50;99.90;;;;;;5062225;28;20478;-78
2023/08/19 08:18:30;;;;;;;9.20;4.90;;;27.60;99.90;;;;;;5062622;28;20478;-79
2023/08/19 08:21:02;;;;;;;6.03;4.80;;;27.70;99.90;;;;;;5061842;28;20472;-79
2023/08/19 08:23:39;;;;;;;7.37;4.50;;;27.90;99.90;;;;;;5062135;28;20449;-78
2023/08/19 08:26:09;;;;;;;5.50;4.77;;;28.10;99.90;;;;;;5064645;28;20462;-80
2023/08/19 08:28:37;;;;;;;6.03;5.20;;;28.30;99.90;;;;;;5062665;28;20445;-78
2023/08/19 08:31:06;;;;;;;6.50;4.97;;;28.40;99.90;;;;;;5062060;28;20468;-77
2023/08/19 08:33:33;;;;;;;6.00;5.00;;;28.60;99.90;;;;;;5061689;28;20499;-78
2023/08/19 08:36:04;;;;;;;4.87;4.17;;;28.70;99.90;;;;;;5062536;28;20470;-79
2023/08/19 08:38:41;;;;;;;5.53;4.33;;;28.90;99.90;;;;;;5064859;28;20477;-80
2023/08/19 08:41:18;;;;;;;6.37;4.40;;;29.00;99.90;;;;;;5064340;28;20517;-77
2023/08/19 08:43:54;;;;;;;4.93;4.50;;;29.40;99.90;;;;;;5062711;28;20505;-80
2023/08/19 08:46:35;;;;;;;5.30;4.80;;;29.30;99.90;;;;;;5062317;28;20481;-77
2023/08/19 08:49:09;;;;;;;5.50;4.27;;;29.60;99.90;;;;;;5059461;28;20541;-78
2023/08/19 08:51:44;;;;;;;8.37;4.97;;;30.00;99.90;;;;;;5061593;28;20965;-78
2023/08/19 08:54:21;;;;;;;4.83;4.33;;;30.20;99.90;;;;;;5059611;28;20901;-77
2023/08/19 08:56:54;;;;;;;9.83;4.77;;;30.40;99.90;;;;;;5057864;28;20468;-77
2023/08/19 08:59:23;;;;;;;6.67;4.70;;;30.50;99.90;;;;;;5057455;28;20485;-77
2023/08/19 09:01:59;;;;;;;5.77;4.80;;;30.70;99.90;;;;;;5057827;28;20475;-77
2023/08/19 09:04:31;;;;;;;6.10;4.90;;;;;;;;;;5057667;28;20522;-76
2023/08/19 09:07:15;;;;;;;9.70;4.87;;;31.20;99.90;;;;;;5059181;28;20533;-78
2023/08/19 09:09:59;;;;;;;5.07;4.20;;;31.10;99.90;;;;;;5057791;28;20461;-78
2023/08/19 09:12:33;;;;;;;6.20;4.67;;;31.40;99.90;;;;;;5058136;28;20553;-79
2023/08/19 09:15:09;;;;;;;6.37;4.63;;;31.60;99.90;;;;;;5058095;28;20460;-77
2023/08/19 09:17:38;;;;;;;5.33;4.53;;;31.90;99.90;;;;;;5058209;28;20453;-79
2023/08/19 09:20:10;;;;;;;6.97;4.63;;;32.30;99.90;;;;;;5060183;28;20473;-77
2023/08/19 09:22:43;;;;;;;5.90;4.57;;;32.30;99.90;;;;;;5059516;28;20446;-78
2023/08/19 09:25:16;;;;;;;10.27;3.90;;;;;;;;;;5061053;28;20465;-79
2023/08/19 09:27:48;;;;;;;5.30;4.57;;;32.80;99.90;;;;;;5063146;28;20518;-79
2023/08/19 09:30:23;;;;;;;6.33;4.50;;;33.10;99.90;;;;;;5059752;28;20611;-78
2023/08/19 09:33:00;;;;;;;6.90;4.47;;;33.30;99.90;;;;;;5063017;28;20493;-79
2023/08/19 09:35:39;;;;;;;6.80;4.57;;;33.20;99.90;;;;;;5062574;28;20472;-77
2023/08/19 09:38:29;;;;;;;7.07;4.50;;;33.30;99.90;;;;;;5062742;28;20471;-79
2023/08/19 09:43:56;;;;;;;6.60;4.43;;;33.90;99.90;;;;;;5057629;28;20445;-77
2023/08/19 09:46:35;;;;;;;5.80;4.67;;;34.20;99.90;;;;;;5064748;28;20481;-78
2023/08/19 09:49:11;;;;;;;6.53;4.80;;;34.30;99.90;;;;;;5065188;28;20549;-78
2023/08/19 09:51:40;;;;;;;5.83;4.40;;;34.10;99.90;;;;;;5060930;28;20528;-79
2023/08/19 09:54:13;;;;;;;6.40;4.90;;;34.20;99.90;;;;;;5061101;28;20445;-78
2023/08/19 09:56:41;;;;;;;4.90;4.43;;;34.30;99.90;;;;;;5061948;28;20461;-78
2023/08/19 09:59:20;;;;;;;4.47;3.97;;;34.60;99.90;;;;;;5061800;28;20480;-78
2023/08/19 10:01:53;;;;;;;5.00;4.40;;;34.80;99.90;;;;;;5058500;28;20448;-77
2023/08/19 10:04:31;;;;;;;7.30;4.23;;;35.10;99.90;;;;;;5055727;28;20877;-77
2023/08/19 10:07:06;;;;;;;6.20;3.93;;;35.30;99.40;;;;;;5056504;28;20480;-77
2023/08/19 10:13:07;;;;;;;5.40;3.70;;;35.40;99.60;;;;;;5056060;28;20883;-77
2023/08/19 10:15:48;;;;;;;6.97;4.13;;;35.70;99.10;;;;;;5064197;28;20471;-78
2023/08/19 10:18:44;;;;;;;6.80;4.30;;;35.70;98.20;;;;;;5064587;28;20957;-78
2023/08/19 10:21:26;;;;;;;6.03;4.23;;;35.60;98.00;;;;;;5069602;28;20450;-78
2023/08/19 10:23:58;;;;;;;6.07;3.97;;;35.90;97.00;;;;;;5069430;28;20498;-80
2023/08/19 10:26:34;;;;;;;6.80;4.33;;;35.60;95.60;;;;;;5064543;28;20495;-76
2023/08/19 10:35:41;;;;;;;4.70;3.67;;;36.40;95.00;;;;;;5067420;28;20437;-77
2023/08/19 10:41:33;;;;;;;5.10;4.33;;;36.10;93.50;;;;;;5068244;28;20491;-77
2023/08/19 10:44:07;;;;;;;4.50;4.10;;;36.40;92.20;;;;;;5067998;28;20472;-78
2023/08/19 10:46:38;;;;;;;5.10;4.00;;;36.70;91.50;;;;;;5066700;28;20475;-78
2023/08/19 10:49:14;;;;;;;6.90;4.17;;;36.90;91.90;;;;;;5072733;28;20440;-78
2023/08/19 10:52:17;;;;;;;6.17;3.70;;;37.20;91.00;;;;;;5073876;28;20429;-77
2023/08/19 10:54:52;;;;;;;6.30;4.27;;;37.50;88.60;;;;;;5071479;28;20445;-78
2023/08/19 10:57:31;;;;;;;5.07;4.03;;;37.90;87.50;;;;;;5071234;28;20480;-78
2023/08/19 11:00:05;;;;;;;5.03;4.10;;;38.10;85.00;;;;;;5068695;28;20483;-77
2023/08/19 11:02:35;;;;;;;8.47;4.53;;;38.00;81.70;;;;;;5068408;28;20447;-79
2023/08/19 11:05:10;;;;;;;4.40;4.00;;;38.00;82.40;;;;;;5071536;28;20473;-79
2023/08/19 11:07:42;;;;;;;5.00;4.50;;;38.50;77.00;;;;;;5069180;28;20477;-78
2023/08/19 11:10:14;;;;;;;3.73;3.43;;;38.40;77.50;;;;;;5068796;28;20635;-80
2023/08/19 11:12:50;;;;;;;4.30;3.50;;;38.60;76.10;;;;;;5067411;28;20456;-78
2023/08/19 11:15:30;;;;;;;6.27;3.77;;;38.90;76.20;;;;;;5069224;28;20448;-78
2023/08/19 11:18:02;;;;;;;7.77;4.10;;;39.20;73.70;;;;;;5069613;28;20885;-78
2023/08/19 11:20:47;;;;;;;9.33;4.70;;;39.60;71.50;;;;;;5069274;28;20477;-78
2023/08/19 11:23:36;;;;;;;6.43;3.97;;;39.50;71.30;;;;;;5073186;28;20449;-77
2023/08/19 11:26:44;;;;;;;3.80;3.50;;;39.50;69.40;;;;;;5074080;28;20493;-79
2023/08/19 11:29:54;;;;;;;;;;;;;;;;;;;;;
2023/08/19 11:33:02;;;;;;;5.93;3.57;;;39.50;66.30;;;;;;5052965;28;20440;-78
2023/08/19 11:42:19;;;;;;;;;;;;;;;;;;;;;
2023/08/19 11:45:04;;;;;;;3.53;3.20;;;;;;;;;;5006863;28;20553;-79
2023/08/19 11:47:51;;;;;;;4.40;3.50;;;38.80;60.50;;;;;;5062885;28;20469;-78
2023/08/19 11:50:48;;;;;;;5.80;3.90;;;39.20;61.70;;;;;;5068473;28;20468;-78
2023/08/19 11:53:32;;;;;;;4.80;3.23;;;38.90;61.20;;;;;;5056698;28;20445;-78
2023/08/19 11:56:01;;;;;;;3.60;3.30;;;39.40;61.80;;;;;;5065699;28;20461;-80
2023/08/19 11:58:39;;;;;;;6.30;3.43;;;40.10;60.40;;;;;;5068971;28;20440;-77
2023/08/19 12:01:25;;;;;;;4.53;3.63;;;40.20;58.60;;;;;;5069894;28;20452;-78
2023/08/19 12:03:56;;;;;;;7.10;3.70;;;40.20;58.80;;;;;;5070249;28;20933;-77
2023/08/19 12:06:36;;;;;;;5.33;4.10;;;40.30;58.60;;;;;;5068184;28;20437;-77
2023/08/19 12:09:15;;;;;;;4.60;3.37;;;40.40;58.10;;;;;;5067052;28;20479;-77
2023/08/19 12:12:17;;;;;;;4.30;3.90;;;39.60;59.30;;;;;;5057021;28;20445;-76
2023/08/19 12:15:04;;;;;;;4.83;3.73;;;40.10;59.10;;;;;;5057304;28;20504;-76
2023/08/19 12:17:43;;;;;;;6.07;3.90;;;40.50;57.80;;;;;;5055204;28;20592;-75
2023/08/19 12:20:18;;;;;;;4.80;3.37;;;40.80;57.10;;;;;;5055143;28;21069;-78
2023/08/19 12:22:54;;;;;;;5.17;2.80;;;40.90;57.60;;;;;;5065608;28;20957;-77
2023/08/19 12:25:25;;;;;;;5.20;3.50;;;41.10;56.70;;;;;;5055381;28;20475;-79
2023/08/19 12:27:53;;;;;;;5.33;3.33;;;40.40;56.10;;;;;;5055168;28;20491;-77
2023/08/19 12:30:25;;;;;;;6.53;3.37;;;40.50;56.20;;;;;;5060012;28;20445;-77
2023/08/19 12:32:56;;;;;;;7.70;3.70;;;40.60;56.80;;;;;;5056465;28;20457;-78
2023/08/19 12:35:31;;;;;;;4.07;3.67;;;40.80;56.10;;;;;;5056008;28;21008;-79
2023/08/19 12:38:18;;;;;;;4.07;3.67;;;40.30;57.00;;;;;;5055253;28;20449;-77
2023/08/19 12:40:50;;;;;;;5.53;4.17;;;40.20;57.50;;;;;;5055410;28;20571;-78
2023/08/19 12:43:24;;;;;;;4.03;3.63;;;39.60;58.50;;;;;;5055564;28;20453;-79
2023/08/19 12:45:59;;;;;;;9.40;4.00;;;39.20;59.40;;;;;;5055207;28;20476;-79
2023/08/19 12:48:33;;;;;;;3.93;3.53;;;39.10;61.70;;;;;;5055359;28;20477;-79
2023/08/19 12:51:01;;;;;;;7.00;4.30;;;39.00;62.80;;;;;;5055353;28;20517;-77
2023/08/19 12:53:35;;;;;;;6.83;4.20;;;39.20;62.90;;;;;;5055385;28;20871;-77
2023/08/19 12:56:04;;;;;;;5.60;4.57;;;38.70;63.60;;;;;;5054820;28;20568;-78
2023/08/19 12:58:31;;;;;;;5.70;4.20;;;38.20;64.60;;;;;;5052671;28;20442;-78
2023/08/19 13:00:59;;;;;;;5.00;4.50;;;38.30;64.70;;;;;;5054735;28;20473;-78
2023/08/19 13:03:29;;;;;;;5.40;4.50;;;38.30;64.00;;;;;;5058545;28;20808;-77
2023/08/19 13:06:03;;;;;;;8.20;4.10;;;37.80;63.70;;;;;;5058603;28;20535;-77
2023/08/19 13:08:38;;;;;;;3.90;3.60;;;37.60;65.10;;;;;;5058789;28;20536;-78
2023/08/19 13:11:11;;;;;;;4.97;4.10;;;37.70;64.60;;;;;;5058391;28;20432;-78
2023/08/19 13:13:40;;;;;;;3.93;3.60;;;37.50;64.40;;;;;;5056598;28;20517;-79
2023/08/19 13:16:19;;;;;;;4.67;4.17;;;37.80;64.20;;;;;;5053837;28;20573;-79
2023/08/19 13:18:55;;;;;;;3.70;3.33;;;37.80;63.00;;;;;;5054667;28;20489;-77
2023/08/19 13:21:26;;;;;;;4.83;3.80;;;37.40;63.70;;;;;;5048400;28;20450;-77
2023/08/19 13:23:59;;;;;;;4.10;3.70;;;36.90;62.80;;;;;;5055061;28;20583;-77
2023/08/19 13:26:34;;;;;;;6.60;3.83;;;36.30;65.00;;;;;;5056331;28;20477;-79
2023/08/19 13:29:07;;;;;;;3.97;3.53;;;36.30;64.80;;;;;;5055568;28;20449;-77
2023/08/19 13:31:37;;;;;;;5.20;4.50;;;36.60;65.00;;;;;;5055746;28;20469;-78
2023/08/19 13:34:09;;;;;;;4.97;4.07;;;36.30;65.70;;;;;;5054769;28;20492;-77
2023/08/19 13:36:48;;;;;;;4.60;4.13;;;;;;;;;;5055722;28;20477;-79
2023/08/19 13:39:22;;;;;;;5.00;3.50;;;36.10;65.20;;;;;;5054924;28;20445;-78
2023/08/19 13:41:56;;;;;;;5.47;4.93;;;35.70;67.90;;;;;;5056746;28;20457;-79
2023/08/19 13:44:27;;;;;;;8.60;6.50;;;35.20;73.00;;;;;;5054073;28;20533;-80
2023/08/19 13:46:56;;;;;;;6.77;6.07;;;34.40;77.80;;;;;;5054568;28;20496;-80
2023/08/19 13:49:27;;;;;;;8.53;6.00;;;33.80;81.20;;;;;;5055411;28;20458;-79
2023/08/19 13:51:59;;;;;;;6.47;5.87;;;33.90;81.30;;;;;;5056583;28;20820;-79
2023/08/19 13:54:36;;;;;;;5.60;5.20;;;33.80;81.40;;;;;;5058073;28;20437;-79
2023/08/19 13:57:07;;;;;;;6.60;5.70;;;33.80;81.80;;;;;;5058211;28;20465;-78
2023/08/19 13:59:38;;;;;;;5.73;5.33;;;33.20;82.50;;;;;;5057269;28;20498;-80
2023/08/19 14:02:05;;;;;;;6.73;5.67;;;32.90;83.20;;;;;;5056834;28;20445;-80
2023/08/19 14:04:36;;;;;;;6.10;5.50;;;32.50;84.80;;;;;;5054794;28;20492;-80
2023/08/19 14:07:14;;;;;;;6.60;6.03;;;32.40;84.90;;;;;;5053782;28;20465;-78
2023/08/19 14:09:50;;;;;;;5.73;5.30;;;32.30;85.40;;;;;;5053949;28;20449;-79
2023/08/19 14:12:24;;;;;;;7.20;6.50;;;32.30;85.50;;;;;;5053295;28;20453;-78
2023/08/19 14:14:52;;;;;;;7.80;6.40;;;32.10;86.30;;;;;;5052941;28;20945;-78
2023/08/19 14:17:22;;;;;;;6.30;5.80;;;31.90;85.90;;;;;;5053042;28;20792;-77
2023/08/19 14:20:11;;;;;;;7.77;5.67;;;32.00;86.30;;;;;;5050041;28;20486;-78
2023/08/19 14:22:43;;;;;;;6.17;5.57;;;31.50;87.20;;;;;;5051500;28;20449;-78
2023/08/19 14:25:13;;;;;;;5.47;5.07;;;31.90;87.70;;;;;;5054893;28;20445;-78
2023/08/19 14:27:43;;;;;;;6.03;5.53;;;32.20;86.70;;;;;;5056073;28;20472;-79
2023/08/19 14:30:22;;;;;;;11.43;6.10;;;32.20;86.80;;;;;;5053232;28;20532;-78
2023/08/19 14:32:57;;;;;;;6.10;5.37;;;32.20;87.70;;;;;;5055880;28;20588;-78
2023/08/19 14:35:34;;;;;;;8.17;5.80;;;32.00;87.60;;;;;;5057382;28;20456;-80
2023/08/19 14:38:02;;;;;;;8.07;6.67;;;32.00;88.90;;;;;;5057757;28;20529;-79